sensor_id;sensor_type;location;lat;lon;timestamp;pressure;altitude;pressure_sealevel;temperature;humidity
28310;BME280;15571;50.974;13.936;2023-01-29T01:38:50;101307.97;;;-0.18;100.00
28310;BME280;15571;50.974;13.936;2023-01-29T01:41:52;101310.53;;;-0.18;100.00
28310;BME280;15571;50.974;13.936;2023-01-29T01:44:57;101303.72;;;-0.17;100.00
28310;BME280;15571;50.974;13.936;2023-01-29T01:48:02;101304.59;;;-0.17;100.00
28310;BME280;15571;50.974;13.936;2023-01-29T01:51:06;101310.53;;;-0.18;100.00
28310;BME280;15571;50.974;13.936;2023-01-29T01:54:10;101303.72;;;-0.17;100.00
28310;BME280;15571;50.974;13.936;2023-01-29T01:57:13;101299.44;;;-0.17;100.00
28310;BME280;15571;50.974;13.936;2023-01-29T02:00:19;101301.94;;;-0.18;100.00
28310;BME280;15571;50.974;13.936;2023-01-29T02:03:22;101302.81;;;-0.18;100.00
28310;BME280;15571;50.974;13.936;2023-01-29T02:06:48;101309.75;;;-0.17;100.00
28310;BME280;15571;50.974;13.936;2023-01-29T02:10:11;101313.13;;;-0.18;100.00
28310;BME280;15571;50.974;13.936;2023-01-29T02:13:17;101307.97;;;-0.18;100.00
28310;BME280;15571;50.974;13.936;2023-01-29T02:16:20;101295.91;;;-0.19;100.00
28310;BME280;15571;50.974;13.936;2023-01-29T02:19:25;101289.16;;;-0.17;100.00
28310;BME280;15571;50.974;13.936;2023-01-29T02:22:37;101287.38;;;-0.18;100.00
28310;BME280;15571;50.974;13.936;2023-01-29T02:25:50;101282.22;;;-0.18;100.00
28310;BME280;15571;50.974;13.936;2023-01-29T02:28:56;101282.22;;;-0.18;100.00
28310;BME280;15571;50.974;13.936;2023-01-29T02:32:24;101288.19;;;-0.19;100.00
28310;BME280;15571;50.974;13.936;2023-01-29T02:35:31;101287.38;;;-0.18;100.00
28310;BME280;15571;50.974;13.936;2023-01-29T02:38:39;101285.59;;;-0.19;100.00
28310;BME280;15571;50.974;13.936;2023-01-29T02:41:53;101287.31;;;-0.19;100.00
28310;BME280;15571;50.974;13.936;2023-01-29T02:44:59;101294.16;;;-0.20;100.00
28310;BME280;15571;50.974;13.936;2023-01-29T02:48:04;101282.16;;;-0.19;100.00
28310;BME280;15571;50.974;13.936;2023-01-29T02:51:07;101276.13;;;-0.20;100.00
28310;BME280;15571;50.974;13.936;2023-01-29T02:54:13;101282.88;;;-0.22;100.00
28310;BME280;15571;50.974;13.936;2023-01-29T02:57:18;101286.25;;;-0.23;100.00
28310;BME280;15571;50.974;13.936;2023-01-29T03:00:33;101287.06;;;-0.24;100.00
28310;BME280;15571;50.974;13.936;2023-01-29T03:03:39;101289.63;;;-0.24;100.00
28310;BME280;15571;50.974;13.936;2023-01-29T03:06:43;101281.91;;;-0.24;100.00
28310;BME280;15571;50.974;13.936;2023-01-29T03:09:47;101274.09;;;-0.25;100.00
28310;BME280;15571;50.974;13.936;2023-01-29T03:12:54;101274.09;;;-0.25;100.00
28310;BME280;15571;50.974;13.936;2023-01-29T03:16:03;101286.88;;;-0.27;100.00
28310;BME280;15571;50.974;13.936;2023-01-29T03:19:14;101287.78;;;-0.26;100.00
28310;BME280;15571;50.974;13.936;2023-01-29T03:22:17;101293.72;;;-0.27;100.00
28310;BME280;15571;50.974;13.936;2023-01-29T03:25:21;101296.28;;;-0.27;100.00
28310;BME280;15571;50.974;13.936;2023-01-29T03:28:43;101303.09;;;-0.28;100.00
28310;BME280;15571;50.974;13.936;2023-01-29T03:32:08;101307.31;;;-0.30;100.00
28310;BME280;15571;50.974;13.936;2023-01-29T03:35:12;101300.38;;;-0.31;100.00
28310;BME280;15571;50.974;13.936;2023-01-29T03:38:21;101302.78;;;-0.34;100.00
28310;BME280;15571;50.974;13.936;2023-01-29T03:41:30;101306.94;;;-0.36;100.00
28310;BME280;15571;50.974;13.936;2023-01-29T03:44:34;101304.28;;;-0.38;100.00
28310;BME280;15571;50.974;13.936;2023-01-29T03:47:44;101301.47;;;-0.42;100.00
28310;BME280;15571;50.974;13.936;2023-01-29T03:50:51;101308.19;;;-0.44;100.00
28310;BME280;15571;50.974;13.936;2023-01-29T03:53:56;101311.56;;;-0.45;100.00
28310;BME280;15571;50.974;13.936;2023-01-29T03:57:02;101296.94;;;-0.47;100.00
28310;BME280;15571;50.974;13.936;2023-01-29T04:00:09;101302.19;;;-0.45;100.00
28310;BME280;15571;50.974;13.936;2023-01-29T04:03:48;101300.41;;;-0.46;100.00
28310;BME280;15571;50.974;13.936;2023-01-29T04:06:51;101300.28;;;-0.48;100.00
28310;BME280;15571;50.974;13.936;2023-01-29T04:09:59;101309.78;;;-0.47;100.00
28310;BME280;15571;50.974;13.936;2023-01-29T04:13:09;101300.28;;;-0.48;100.00
28310;BME280;15571;50.974;13.936;2023-01-29T04:16:14;101294.28;;;-0.48;100.00
28310;BME280;15571;50.974;13.936;2023-01-29T04:19:30;101278.78;;;-0.50;100.00
28310;BME280;15571;50.974;13.936;2023-01-29T04:22:36;101281.25;;;-0.51;100.00
28310;BME280;15571;50.974;13.936;2023-01-29T04:25:40;101275.13;;;-0.53;100.00
28310;BME280;15571;50.974;13.936;2023-01-29T04:28:52;101267.31;;;-0.55;100.00
28310;BME280;15571;50.974;13.936;2023-01-29T04:31:57;101257.81;;;-0.56;100.00
28310;BME280;15571;50.974;13.936;2023-01-29T04:35:06;101262.81;;;-0.59;100.00
28310;BME280;15571;50.974;13.936;2023-01-29T04:38:16;101260.06;;;-0.62;100.00
28310;BME280;15571;50.974;13.936;2023-01-29T04:41:23;101252.16;;;-0.65;100.00
28310;BME280;15571;50.974;13.936;2023-01-29T04:44:30;101243.47;;;-0.67;100.00
28310;BME280;15571;50.974;13.936;2023-01-29T04:47:39;101239.06;;;-0.70;100.00
28310;BME280;15571;50.974;13.936;2023-01-29T04:50:51;101242.28;;;-0.74;100.00
28310;BME280;15571;50.974;13.936;2023-01-29T04:53:55;101238.59;;;-0.77;100.00
28310;BME280;15571;50.974;13.936;2023-01-29T04:57:01;101228.16;;;-0.81;100.00
28310;BME280;15571;50.974;13.936;2023-01-29T05:00:07;101220.28;;;-0.84;100.00
28310;BME280;15571;50.974;13.936;2023-01-29T05:03:13;101216.72;;;-0.86;100.00
28310;BME280;15571;50.974;13.936;2023-01-29T05:06:18;101205.38;;;-0.89;100.00
28310;BME280;15571;50.974;13.936;2023-01-29T05:09:21;101208.75;;;-0.90;100.00
28310;BME280;15571;50.974;13.936;2023-01-29T05:12:27;101207.78;;;-0.92;100.00
28310;BME280;15571;50.974;13.936;2023-01-29T05:15:34;101198.22;;;-0.95;100.00
28310;BME280;15571;50.974;13.936;2023-01-29T05:18:37;101195.56;;;-0.97;100.00
28310;BME280;15571;50.974;13.936;2023-01-29T05:21:42;101196.34;;;-0.98;100.00
28310;BME280;15571;50.974;13.936;2023-01-29T05:24:44;101197.94;;;-1.00;100.00
28310;BME280;15571;50.974;13.936;2023-01-29T05:31:03;101201.22;;;-1.02;100.00
28310;BME280;15571;50.974;13.936;2023-01-29T05:34:05;101204.59;;;-1.03;100.00
28310;BME280;15571;50.974;13.936;2023-01-29T05:37:09;101194.31;;;-1.03;100.00
28310;BME280;15571;50.974;13.936;2023-01-29T05:40:14;101194.13;;;-1.06;100.00
28310;BME280;15571;50.974;13.936;2023-01-29T05:43:17;101193.00;;;-1.12;100.00
28310;BME280;15571;50.974;13.936;2023-01-29T05:46:20;101189.44;;;-1.14;100.00
28310;BME280;15571;50.974;13.936;2023-01-29T05:49:24;101199.72;;;-1.14;100.00
28310;BME280;15571;50.974;13.936;2023-01-29T05:52:28;101192.81;;;-1.15;100.00
28310;BME280;15571;50.974;13.936;2023-01-29T05:55:30;101197.94;;;-1.15;100.00
28310;BME280;15571;50.974;13.936;2023-01-29T05:58:32;101204.69;;;-1.17;100.00
28310;BME280;15571;50.974;13.936;2023-01-29T06:01:36;101206.19;;;-1.20;100.00
28310;BME280;15571;50.974;13.936;2023-01-29T06:04:38;101200.19;;;-1.21;100.00
28310;BME280;15571;50.974;13.936;2023-01-29T06:07:42;101186.44;;;-1.21;100.00
28310;BME280;15571;50.974;13.936;2023-01-29T06:10:55;101201.84;;;-1.21;100.00
28310;BME280;15571;50.974;13.936;2023-01-29T06:13:57;101211.25;;;-1.22;100.00
28310;BME280;15571;50.974;13.936;2023-01-29T06:16:59;101215.47;;;-1.22;100.00
28310;BME280;15571;50.974;13.936;2023-01-29T06:20:01;101214.63;;;-1.23;100.00
28310;BME280;15571;50.974;13.936;2023-01-29T06:23:05;101203.34;;;-1.25;100.00
28310;BME280;15571;50.974;13.936;2023-01-29T06:26:08;101205.06;;;-1.26;100.00
28310;BME280;15571;50.974;13.936;2023-01-29T06:29:11;101216.31;;;-1.23;100.00
28310;BME280;15571;50.974;13.936;2023-01-29T06:32:13;101220.47;;;-1.26;100.00
28310;BME280;15571;50.974;13.936;2023-01-29T06:35:15;101231.47;;;-1.28;100.00
28310;BME280;15571;50.974;13.936;2023-01-29T06:38:18;101249.31;;;-1.30;100.00
28310;BME280;15571;50.974;13.936;2023-01-29T06:41:20;101263.88;;;-1.30;100.00
28310;BME280;15571;50.974;13.936;2023-01-29T06:44:24;101261.81;;;-1.36;100.00
28310;BME280;15571;50.974;13.936;2023-01-29T06:47:28;101258.34;;;-1.36;100.00
28310;BME280;15571;50.974;13.936;2023-01-29T06:50:30;101267.03;;;-1.34;100.00
28310;BME280;15571;50.974;13.936;2023-01-29T06:53:36;101274.03;;;-1.32;100.00
28310;BME280;15571;50.974;13.936;2023-01-29T06:56:39;101275.13;;;-1.28;100.00
28310;BME280;15571;50.974;13.936;2023-01-29T06:59:41;101277.00;;;-1.26;100.00
28310;BME280;15571;50.974;13.936;2023-01-29T07:02:47;101288.13;;;-1.25;100.00
28310;BME280;15571;50.974;13.936;2023-01-29T07:05:49;101286.56;;;-1.23;100.00
28310;BME280;15571;50.974;13.936;2023-01-29T07:08:53;101286.75;;;-1.20;100.00
28310;BME280;15571;50.974;13.936;2023-01-29T07:11:59;101289.38;;;-1.18;100.00
28310;BME280;15571;50.974;13.936;2023-01-29T07:15:02;101301.44;;;-1.17;100.00
28310;BME280;15571;50.974;13.936;2023-01-29T07:18:05;101303.22;;;-1.16;100.00
28310;BME280;15571;50.974;13.936;2023-01-29T07:21:11;101312.00;;;-1.13;100.00
28310;BME280;15571;50.974;13.936;2023-01-29T07:24:15;101310.31;;;-1.12;100.00
28310;BME280;15571;50.974;13.936;2023-01-29T07:27:19;101307.84;;;-1.11;100.00
28310;BME280;15571;50.974;13.936;2023-01-29T07:30:21;101309.63;;;-1.10;100.00
28310;BME280;15571;50.974;13.936;2023-01-29T07:33:23;101313.13;;;-1.07;100.00
28310;BME280;15571;50.974;13.936;2023-01-29T07:36:28;101303.78;;;-1.07;100.00
28310;BME280;15571;50.974;13.936;2023-01-29T07:39:31;101302.25;;;-1.03;100.00
28310;BME280;15571;50.974;13.936;2023-01-29T07:42:33;101301.53;;;-1.01;100.00
28310;BME280;15571;50.974;13.936;2023-01-29T07:45:35;101301.66;;;-0.99;100.00
28310;BME280;15571;50.974;13.936;2023-01-29T07:48:43;101294.91;;;-0.97;100.00
28310;BME280;15571;50.974;13.936;2023-01-29T07:51:48;101295.09;;;-0.94;100.00
28310;BME280;15571;50.974;13.936;2023-01-29T07:55:04;101287.47;;;-0.92;100.00
28310;BME280;15571;50.974;13.936;2023-01-29T07:58:08;101281.63;;;-0.90;100.00
28310;BME280;15571;50.974;13.936;2023-01-29T08:01:10;101266.28;;;-0.88;100.00
28310;BME280;15571;50.974;13.936;2023-01-29T08:04:16;101269.72;;;-0.88;100.00
28310;BME280;15571;50.974;13.936;2023-01-29T08:07:18;101250.94;;;-0.87;100.00
28310;BME280;15571;50.974;13.936;2023-01-29T08:10:22;101249.34;;;-0.85;100.00
28310;BME280;15571;50.974;13.936;2023-01-29T08:13:24;101244.41;;;-0.82;100.00
28310;BME280;15571;50.974;13.936;2023-01-29T08:16:25;101253.25;;;-0.76;100.00
28310;BME280;15571;50.974;13.936;2023-01-29T08:19:27;101245.63;;;-0.75;100.00
28310;BME280;15571;50.974;13.936;2023-01-29T08:22:35;101225.22;;;-0.72;100.00
28310;BME280;15571;50.974;13.936;2023-01-29T08:25:38;101234.09;;;-0.67;100.00
28310;BME280;15571;50.974;13.936;2023-01-29T08:28:40;101227.50;;;-0.61;100.00
28310;BME280;15571;50.974;13.936;2023-01-29T08:31:42;101222.81;;;-0.54;100.00
28310;BME280;15571;50.974;13.936;2023-01-29T08:34:44;101222.00;;;-0.53;100.00
28310;BME280;15571;50.974;13.936;2023-01-29T08:37:51;101214.53;;;-0.48;100.00
28310;BME280;15571;50.974;13.936;2023-01-29T08:40:54;101224.91;;;-0.47;100.00
28310;BME280;15571;50.974;13.936;2023-01-29T08:43:56;101231.22;;;-0.41;100.00
28310;BME280;15571;50.974;13.936;2023-01-29T08:46:59;101215.91;;;-0.38;100.00
28310;BME280;15571;50.974;13.936;2023-01-29T08:50:05;101218.59;;;-0.37;100.00
28310;BME280;15571;50.974;13.936;2023-01-29T08:53:18;101229.75;;;-0.36;100.00
28310;BME280;15571;50.974;13.936;2023-01-29T08:56:25;101236.50;;;-0.38;100.00
28310;BME280;15571;50.974;13.936;2023-01-29T08:59:27;101232.25;;;-0.38;100.00
28310;BME280;15571;50.974;13.936;2023-01-29T09:02:29;101236.59;;;-0.37;100.00
28310;BME280;15571;50.974;13.936;2023-01-29T09:05:34;101235.88;;;-0.34;100.00
28310;BME280;15571;50.974;13.936;2023-01-29T09:08:36;101232.59;;;-0.32;100.00
28310;BME280;15571;50.974;13.936;2023-01-29T09:11:40;101204.38;;;-0.30;100.00
28310;BME280;15571;50.974;13.936;2023-01-29T09:14:42;101196.00;;;-0.26;100.00
28310;BME280;15571;50.974;13.936;2023-01-29T09:17:44;101195.47;;;-0.20;100.00
28310;BME280;15571;50.974;13.936;2023-01-29T09:20:46;101201.66;;;-0.17;100.00
28310;BME280;15571;50.974;13.936;2023-01-29T09:23:56;101201.81;;;-0.13;100.00
28310;BME280;15571;50.974;13.936;2023-01-29T09:26:59;101203.75;;;-0.09;100.00
28310;BME280;15571;50.974;13.936;2023-01-29T09:30:01;101207.47;;;-0.04;100.00
28310;BME280;15571;50.974;13.936;2023-01-29T09:33:05;101192.19;;;-0.01;100.00
28310;BME280;15571;50.974;13.936;2023-01-29T09:36:08;101182.84;;;0.01;100.00
28310;BME280;15571;50.974;13.936;2023-01-29T09:39:14;101173.38;;;0.00;100.00
28310;BME280;15571;50.974;13.936;2023-01-29T09:42:18;101185.59;;;0.04;100.00
28310;BME280;15571;50.974;13.936;2023-01-29T09:45:25;101182.38;;;0.08;100.00
28310;BME280;15571;50.974;13.936;2023-01-29T09:48:28;101197.97;;;0.11;100.00
28310;BME280;15571;50.974;13.936;2023-01-29T09:51:32;101192.81;;;0.11;100.00
28310;BME280;15571;50.974;13.936;2023-01-29T09:54:39;101182.38;;;0.08;100.00
28310;BME280;15571;50.974;13.936;2023-01-29T09:57:49;101182.38;;;0.08;100.00
28310;BME280;15571;50.974;13.936;2023-01-29T10:00:54;101183.41;;;0.12;100.00
28310;BME280;15571;50.974;13.936;2023-01-29T10:07:24;101149.63;;;0.22;100.00
28310;BME280;15571;50.974;13.936;2023-01-29T10:10:29;101155.88;;;0.27;100.00
28310;BME280;15571;50.974;13.936;2023-01-29T10:13:42;101150.97;;;0.32;100.00
28310;BME280;15571;50.974;13.936;2023-01-29T10:16:52;101135.66;;;0.35;100.00
28310;BME280;15571;50.974;13.936;2023-01-29T10:20:15;101142.59;;;0.36;100.00
28310;BME280;15571;50.974;13.936;2023-01-29T10:23:23;101132.44;;;0.39;100.00
28310;BME280;15571;50.974;13.936;2023-01-29T10:26:27;101132.75;;;0.45;100.00
28310;BME280;15571;50.974;13.936;2023-01-29T10:29:31;101137.22;;;0.50;100.00
28310;BME280;15571;50.974;13.936;2023-01-29T10:32:34;101142.56;;;0.53;100.00
28310;BME280;15571;50.974;13.936;2023-01-29T10:35:38;101137.47;;;0.54;100.00
28310;BME280;15571;50.974;13.936;2023-01-29T10:38:42;101143.47;;;0.53;100.00
28310;BME280;15571;50.974;13.936;2023-01-29T10:41:47;101138.19;;;0.52;100.00
28310;BME280;15571;50.974;13.936;2023-01-29T10:44:59;101140.88;;;0.53;100.00
28310;BME280;15571;50.974;13.936;2023-01-29T10:51:31;101136.44;;;0.51;100.00
28310;BME280;15571;50.974;13.936;2023-01-29T10:54:44;101132.25;;;0.53;100.00
28310;BME280;15571;50.974;13.936;2023-01-29T10:57:51;101135.72;;;0.53;100.00
28310;BME280;15571;50.974;13.936;2023-01-29T11:00:58;101120.97;;;0.51;100.00
28310;BME280;15571;50.974;13.936;2023-01-29T11:04:01;101110.75;;;0.52;100.00
28310;BME280;15571;50.974;13.936;2023-01-29T11:07:04;101111.00;;;0.57;100.00
28310;BME280;15571;50.974;13.936;2023-01-29T11:10:06;101102.59;;;0.61;100.00
28310;BME280;15571;50.974;13.936;2023-01-29T11:13:11;101085.69;;;0.66;100.00
28310;BME280;15571;50.974;13.936;2023-01-29T11:16:17;101076.56;;;0.73;100.00
28310;BME280;15571;50.974;13.936;2023-01-29T11:19:39;101073.34;;;0.78;100.00
28310;BME280;15571;50.974;13.936;2023-01-29T11:22:41;101072.72;;;0.83;100.00
28310;BME280;15571;50.974;13.936;2023-01-29T11:25:59;101060.03;;;0.87;100.00
28310;BME280;15571;50.974;13.936;2023-01-29T11:29:08;101051.66;;;0.91;100.00
28310;BME280;15571;50.974;13.936;2023-01-29T11:32:31;101048.38;;;0.96;100.00
28310;BME280;15571;50.974;13.936;2023-01-29T11:35:35;101047.63;;;0.98;100.00
28310;BME280;15571;50.974;13.936;2023-01-29T11:38:37;101032.31;;;1.01;100.00
28310;BME280;15571;50.974;13.936;2023-01-29T11:41:43;101028.19;;;1.05;100.00
28310;BME280;15571;50.974;13.936;2023-01-29T11:44:45;101024.03;;;1.08;100.00
28310;BME280;15571;50.974;13.936;2023-01-29T11:47:49;101021.69;;;1.13;100.00
28310;BME280;15571;50.974;13.936;2023-01-29T11:50:53;101033.97;;;1.19;100.00
28310;BME280;15571;50.974;13.936;2023-01-29T11:53:57;101032.44;;;1.22;100.00
28310;BME280;15571;50.974;13.936;2023-01-29T11:57:00;101029.13;;;1.25;100.00
28310;BME280;15571;50.974;13.936;2023-01-29T12:00:03;101021.38;;;1.25;100.00
28310;BME280;15571;50.974;13.936;2023-01-29T12:03:12;101018.91;;;1.28;100.00
28310;BME280;15571;50.974;13.936;2023-01-29T12:06:17;101008.59;;;1.28;100.00
28310;BME280;15571;50.974;13.936;2023-01-29T12:09:22;101002.63;;;1.29;100.00
28310;BME280;15571;50.974;13.936;2023-01-29T12:12:44;101009.56;;;1.30;100.00
28310;BME280;15571;50.974;13.936;2023-01-29T15:10:43;100884.78;;;1.90;100.00
28310;BME280;15571;50.974;13.936;2023-01-29T15:13:47;100890.69;;;1.88;100.00
28310;BME280;15571;50.974;13.936;2023-01-29T15:17:03;100881.19;;;1.86;100.00
28310;BME280;15571;50.974;13.936;2023-01-29T15:20:24;100884.53;;;1.84;100.00
28310;BME280;15571;50.974;13.936;2023-01-29T15:23:27;100878.41;;;1.82;100.00
28310;BME280;15571;50.974;13.936;2023-01-29T15:26:32;100874.06;;;1.81;100.00
28310;BME280;15571;50.974;13.936;2023-01-29T15:29:39;100877.50;;;1.81;100.00
28310;BME280;15571;50.974;13.936;2023-01-29T15:32:52;100874.84;;;1.78;100.00
28310;BME280;15571;50.974;13.936;2023-01-29T15:35:56;100867.97;;;1.79;100.00
28310;BME280;15571;50.974;13.936;2023-01-29T15:39:10;100856.81;;;1.80;100.00
28310;BME280;15571;50.974;13.936;2023-01-29T15:42:23;100860.34;;;1.82;100.00
28310;BME280;15571;50.974;13.936;2023-01-29T15:45:27;100868.09;;;1.82;100.00
28310;BME280;15571;50.974;13.936;2023-01-29T15:48:36;100866.38;;;1.82;100.00
28310;BME280;15571;50.974;13.936;2023-01-29T15:51:40;100863.75;;;1.81;100.00
28310;BME280;15571;50.974;13.936;2023-01-29T15:54:42;100856.88;;;1.81;100.00
28310;BME280;15571;50.974;13.936;2023-01-29T15:57:50;100854.28;;;1.81;100.00
28310;BME280;15571;50.974;13.936;2023-01-29T16:00:53;100854.28;;;1.81;100.00
28310;BME280;15571;50.974;13.936;2023-01-29T16:03:58;100853.41;;;1.81;100.00
28310;BME280;15571;50.974;13.936;2023-01-29T16:07:04;100850.84;;;1.81;100.00
28310;BME280;15571;50.974;13.936;2023-01-29T16:10:06;100855.13;;;1.80;100.00
28310;BME280;15571;50.974;13.936;2023-01-29T16:13:25;100850.69;;;1.78;100.00
28310;BME280;15571;50.974;13.936;2023-01-29T16:16:31;100846.34;;;1.77;100.00
28310;BME280;15571;50.974;13.936;2023-01-29T16:19:36;100844.63;;;1.76;100.00
28310;BME280;15571;50.974;13.936;2023-01-29T16:22:38;100833.41;;;1.75;100.00
28310;BME280;15571;50.974;13.936;2023-01-29T16:25:43;100833.34;;;1.74;100.00
28310;BME280;15571;50.974;13.936;2023-01-29T16:28:52;100833.34;;;1.74;100.00
28310;BME280;15571;50.974;13.936;2023-01-29T17:06:45;100794.00;;;1.58;100.00
28310;BME280;15571;50.974;13.936;2023-01-29T17:09:47;100792.31;;;1.59;100.00
28310;BME280;15571;50.974;13.936;2023-01-29T17:12:54;100794.09;;;1.60;100.00
28310;BME280;15571;50.974;13.936;2023-01-29T17:15:58;100794.91;;;1.59;100.00
28310;BME280;15571;50.974;13.936;2023-01-29T17:19:10;100790.59;;;1.59;100.00
28310;BME280;15571;50.974;13.936;2023-01-29T17:22:17;100786.25;;;1.58;100.00
28310;BME280;15571;50.974;13.936;2023-01-29T17:25:23;100784.63;;;1.60;100.00
28310;BME280;15571;50.974;13.936;2023-01-29T17:28:25;100779.47;;;1.60;100.00
28310;BME280;15571;50.974;13.936;2023-01-29T17:31:27;100771.72;;;1.60;100.00
28310;BME280;15571;50.974;13.936;2023-01-29T17:34:29;100776.88;;;1.60;100.00
28310;BME280;15571;50.974;13.936;2023-01-29T17:37:37;100783.81;;;1.61;100.00
28310;BME280;15571;50.974;13.936;2023-01-29T17:40:42;100776.88;;;1.60;100.00
28310;BME280;15571;50.974;13.936;2023-01-29T17:43:45;100777.78;;;1.61;100.00
28310;BME280;15571;50.974;13.936;2023-01-29T17:46:47;100772.63;;;1.61;100.00
28310;BME280;15571;50.974;13.936;2023-01-29T17:49:49;100771.72;;;1.60;100.00
28310;BME280;15571;50.974;13.936;2023-01-29T17:52:53;100759.63;;;1.59;100.00
28310;BME280;15571;50.974;13.936;2023-01-29T17:55:55;100764.88;;;1.61;100.00
28310;BME280;15571;50.974;13.936;2023-01-29T17:59:27;100764.03;;;1.62;100.00
28310;BME280;15571;50.974;13.936;2023-01-29T18:02:36;100761.53;;;1.63;100.00
28310;BME280;15571;50.974;13.936;2023-01-29T18:06:05;100764.97;;;1.64;100.00
28310;BME280;15571;50.974;13.936;2023-01-29T18:09:38;100762.41;;;1.64;100.00
28310;BME280;15571;50.974;13.936;2023-01-29T18:17:28;100762.41;;;1.64;100.00
28310;BME280;15571;50.974;13.936;2023-01-29T18:20:31;100756.38;;;1.63;100.00
28310;BME280;15571;50.974;13.936;2023-01-29T18:23:36;100746.91;;;1.64;100.00
28310;BME280;15571;50.974;13.936;2023-01-29T18:26:39;100753.84;;;1.65;100.00
28310;BME280;15571;50.974;13.936;2023-01-29T18:29:41;100753.72;;;1.62;100.00
28310;BME280;15571;50.974;13.936;2023-01-29T18:32:43;100752.84;;;1.61;100.00
28310;BME280;15571;50.974;13.936;2023-01-29T18:35:46;100750.94;;;1.57;100.00
28310;BME280;15571;50.974;13.936;2023-01-29T18:38:48;100744.06;;;1.56;100.00
28310;BME280;15571;50.974;13.936;2023-01-29T18:41:52;100738.81;;;1.54;100.00
28310;BME280;15571;50.974;13.936;2023-01-29T18:44:54;100733.59;;;1.53;100.00
28310;BME280;15571;50.974;13.936;2023-01-29T18:47:56;100734.47;;;1.53;100.00
28310;BME280;15571;50.974;13.936;2023-01-29T18:50:58;100733.59;;;1.53;100.00
28310;BME280;15571;50.974;13.936;2023-01-29T18:54:03;100724.16;;;1.53;100.00
28310;BME280;15571;50.974;13.936;2023-01-29T18:57:06;100714.59;;;1.51;100.00
28310;BME280;15571;50.974;13.936;2023-01-29T19:00:11;100706.03;;;1.52;100.00
28310;BME280;15571;50.974;13.936;2023-01-29T19:03:13;100705.22;;;1.53;100.00
28310;BME280;15571;50.974;13.936;2023-01-29T19:06:15;100699.06;;;1.49;100.00
28310;BME280;15571;50.974;13.936;2023-01-29T19:09:17;100687.94;;;1.50;100.00
28310;BME280;15571;50.974;13.936;2023-01-29T19:12:20;100681.88;;;1.50;100.00
28310;BME280;15571;50.974;13.936;2023-01-29T19:15:22;100672.31;;;1.47;100.00
28310;BME280;15571;50.974;13.936;2023-01-29T19:18:24;100667.91;;;1.45;100.00
28310;BME280;15571;50.974;13.936;2023-01-29T19:21:26;100661.00;;;1.44;100.00
28310;BME280;15571;50.974;13.936;2023-01-29T19:24:29;100660.88;;;1.40;100.00
28310;BME280;15571;50.974;13.936;2023-01-29T19:27:37;100665.09;;;1.38;100.00
28310;BME280;15571;50.974;13.936;2023-01-29T19:30:39;100668.56;;;1.39;100.00
28310;BME280;15571;50.974;13.936;2023-01-29T19:33:41;100659.94;;;1.38;100.00
28310;BME280;15571;50.974;13.936;2023-01-29T19:36:43;100649.59;;;1.38;100.00
28310;BME280;15571;50.974;13.936;2023-01-29T19:39:44;100652.19;;;1.38;100.00
28310;BME280;15571;50.974;13.936;2023-01-29T19:42:48;100655.59;;;1.37;100.00
28310;BME280;15571;50.974;13.936;2023-01-29T19:45:55;100660.69;;;1.36;100.00
28310;BME280;15571;50.974;13.936;2023-01-29T19:48:57;100652.91;;;1.34;100.00
28310;BME280;15571;50.974;13.936;2023-01-29T19:51:59;100655.53;;;1.36;100.00
28310;BME280;15571;50.974;13.936;2023-01-29T19:55:02;100647.63;;;1.31;100.00
28310;BME280;15571;50.974;13.936;2023-01-29T19:58:06;100646.81;;;1.32;100.00
28310;BME280;15571;50.974;13.936;2023-01-29T20:01:11;100640.69;;;1.30;100.00
28310;BME280;15571;50.974;13.936;2023-01-29T20:04:14;100646.75;;;1.31;100.00
28310;BME280;15571;50.974;13.936;2023-01-29T20:07:18;100643.28;;;1.30;100.00
28310;BME280;15571;50.974;13.936;2023-01-29T20:10:20;100640.66;;;1.29;100.00
28310;BME280;15571;50.974;13.936;2023-01-29T20:13:24;100649.19;;;1.28;100.00
28310;BME280;15571;50.974;13.936;2023-01-29T20:16:25;100638.94;;;1.29;100.00
28310;BME280;15571;50.974;13.936;2023-01-29T20:19:27;100647.50;;;1.28;100.00
28310;BME280;15571;50.974;13.936;2023-01-29T20:22:29;100644.03;;;1.28;100.00
28310;BME280;15571;50.974;13.936;2023-01-29T20:25:31;100646.63;;;1.28;100.00
28310;BME280;15571;50.974;13.936;2023-01-29T20:28:37;100649.97;;;1.25;100.00
28310;BME280;15571;50.974;13.936;2023-01-29T20:31:39;100653.38;;;1.24;100.00
28310;BME280;15571;50.974;13.936;2023-01-29T20:34:41;100651.59;;;1.23;100.00
28310;BME280;15571;50.974;13.936;2023-01-29T20:37:46;100642.06;;;1.20;100.00
28310;BME280;15571;50.974;13.936;2023-01-29T20:40:48;100640.22;;;1.18;100.00
28310;BME280;15571;50.974;13.936;2023-01-29T20:43:54;100632.38;;;1.15;100.00
28310;BME280;15571;50.974;13.936;2023-01-29T20:46:56;100629.72;;;1.13;100.00
28310;BME280;15571;50.974;13.936;2023-01-29T20:49:59;100628.81;;;1.11;100.00
28310;BME280;15571;50.974;13.936;2023-01-29T20:53:09;100621.78;;;1.08;100.00
28310;BME280;15571;50.974;13.936;2023-01-29T20:56:11;100622.56;;;1.06;100.00
28310;BME280;15571;50.974;13.936;2023-01-29T20:59:14;100625.09;;;1.04;100.00
28310;BME280;15571;50.974;13.936;2023-01-29T21:02:16;100618.03;;;1.00;100.00
28310;BME280;15571;50.974;13.936;2023-01-29T21:05:18;100623.97;;;0.98;100.00
28310;BME280;15571;50.974;13.936;2023-01-29T21:08:20;100617.94;;;0.97;100.00
28310;BME280;15571;50.974;13.936;2023-01-29T21:11:22;100610.06;;;0.94;100.00
28310;BME280;15571;50.974;13.936;2023-01-29T21:14:25;100604.75;;;0.89;100.00